Time;durP1;ratioP1;P1;durP2;ratioP2;P2;SDS_P1;SDS_P2;PMS_P1;PMS_P2;Temp;Humidity;BMP_temperature;BMP_pressure;BME280_temperature;BME280_humidity;BME280_pressure;Samples;Min_cycle;Max_cycle;Signal;HPM_P1;HPM_P2
2022/03/15 00:01:29;;;;;;;40.77;28.60;;;4.90;82.70;;;;;;5031408;28;20451;-73
2022/03/15 00:03:56;;;;;;;40.07;28.60;;;4.80;83.60;;;;;;5031655;28;20455;-72
2022/03/15 00:06:23;;;;;;;45.40;29.60;;;4.70;83.90;;;;;;5031686;28;20450;-69
2022/03/15 00:08:50;;;;;;;47.60;28.93;;;4.80;84.10;;;;;;5031673;28;20537;-70
2022/03/15 00:11:17;;;;;;;47.27;28.87;;;4.80;84.10;;;;;;5031891;28;20454;-71
2022/03/15 00:13:47;;;;;;;46.23;27.60;;;4.70;84.70;;;;;;5031691;28;20855;-69
2022/03/15 00:16:14;;;;;;;40.47;27.27;;;4.80;84.60;;;;;;5031675;28;20518;-72
2022/03/15 00:18:43;;;;;;;38.07;27.90;;;4.90;84.40;;;;;;5031523;28;20489;-68
2022/03/15 00:21:11;;;;;;;38.50;26.77;;;4.90;84.40;;;;;;5031455;28;20459;-71
2022/03/15 00:23:38;;;;;;;44.73;28.20;;;4.90;83.60;;;;;;5031244;28;20932;-70
2022/03/15 00:26:05;;;;;;;38.67;26.17;;;4.80;84.10;;;;;;5031477;28;20520;-71
2022/03/15 00:28:33;;;;;;;37.70;24.40;;;4.50;84.90;;;;;;5031346;28;20975;-70
2022/03/15 00:31:00;;;;;;;37.83;25.80;;;4.50;85.70;;;;;;5031245;28;20454;-71
2022/03/15 00:33:28;;;;;;;35.83;24.53;;;4.50;86.40;;;;;;5030790;28;21009;-69
2022/03/15 00:35:59;;;;;;;40.33;23.83;;;4.40;86.70;;;;;;5030913;28;20841;-71
2022/03/15 00:38:26;;;;;;;36.70;23.13;;;4.40;87.70;;;;;;5030083;28;20937;-71
2022/03/15 00:40:53;;;;;;;38.40;23.43;;;4.40;88.20;;;;;;5031306;28;20455;-69
2022/03/15 00:43:20;;;;;;;35.73;25.10;;;4.40;88.60;;;;;;5031283;28;20451;-69
2022/03/15 00:45:47;;;;;;;36.07;24.87;;;4.30;88.90;;;;;;5030867;28;20481;-69
2022/03/15 00:48:14;;;;;;;39.33;23.53;;;4.30;89.50;;;;;;5030766;28;20562;-69
2022/03/15 00:50:41;;;;;;;41.50;24.87;;;4.30;89.50;;;;;;5030666;28;20485;-71
2022/03/15 00:53:10;;;;;;;43.13;25.53;;;4.30;90.10;;;;;;5031063;28;20478;-68
2022/03/15 00:55:38;;;;;;;34.60;22.47;;;4.30;90.20;;;;;;5030854;28;20578;-72
2022/03/15 00:58:06;;;;;;;37.00;24.43;;;4.30;90.10;;;;;;5030435;28;20536;-69
2022/03/15 01:00:35;;;;;;;40.87;25.27;;;4.30;90.50;;;;;;5030592;28;20948;-71
2022/03/15 01:03:02;;;;;;;41.73;25.90;;;4.20;90.80;;;;;;5030826;28;20468;-72
2022/03/15 01:05:30;;;;;;;37.90;25.73;;;4.20;91.10;;;;;;5030811;28;20477;-72
2022/03/15 01:07:57;;;;;;;37.53;24.40;;;4.10;91.40;;;;;;5030945;28;20470;-69
2022/03/15 01:10:25;;;;;;;40.90;25.77;;;4.00;91.90;;;;;;5030746;28;20455;-70
2022/03/15 01:12:52;;;;;;;46.40;24.70;;;4.00;92.10;;;;;;5030684;28;20447;-71
2022/03/15 01:15:21;;;;;;;36.43;24.87;;;4.00;92.10;;;;;;5030272;28;20491;-72
2022/03/15 01:17:48;;;;;;;38.37;24.37;;;4.00;92.40;;;;;;5030301;28;20982;-69
2022/03/15 01:20:15;;;;;;;40.03;26.63;;;4.00;92.50;;;;;;5030463;28;20462;-70
2022/03/15 01:22:42;;;;;;;34.20;24.43;;;3.90;93.00;;;;;;5030455;28;20458;-71
2022/03/15 01:25:10;;;;;;;39.07;24.70;;;4.00;92.90;;;;;;5030089;28;20540;-70
2022/03/15 01:27:39;;;;;;;42.67;25.53;;;4.20;92.60;;;;;;5030144;28;20541;-70
2022/03/15 01:30:07;;;;;;;41.17;26.50;;;4.30;91.80;;;;;;5030030;28;20455;-71
2022/03/15 01:32:34;;;;;;;37.47;24.23;;;4.10;92.10;;;;;;5030135;28;20459;-71
2022/03/15 01:35:02;;;;;;;33.63;24.53;;;4.00;92.00;;;;;;5030095;28;20900;-71
2022/03/15 01:37:29;;;;;;;34.30;24.47;;;4.00;92.40;;;;;;5030095;28;20489;-71
2022/03/15 01:39:56;;;;;;;33.23;24.27;;;4.10;92.30;;;;;;5029749;28;20459;-69
2022/03/15 01:42:23;;;;;;;40.33;26.63;;;4.10;92.60;;;;;;5029839;28;20915;-69
2022/03/15 01:44:53;;;;;;;38.03;26.13;;;4.20;92.00;;;;;;5029886;28;20459;-69
2022/03/15 01:47:20;;;;;;;39.13;24.57;;;3.80;92.80;;;;;;5029991;28;20854;-68
2022/03/15 01:49:47;;;;;;;41.03;26.50;;;3.80;93.30;;;;;;5028944;28;20528;-71
2022/03/15 01:52:16;;;;;;;36.77;25.90;;;3.60;94.20;;;;;;5029486;28;20900;-70
2022/03/15 01:54:43;;;;;;;42.63;24.57;;;3.30;96.30;;;;;;5029554;28;20462;-72
2022/03/15 01:57:11;;;;;;;41.60;25.90;;;3.40;96.80;;;;;;5029488;28;20470;-72
2022/03/15 01:59:38;;;;;;;36.00;26.00;;;3.30;97.10;;;;;;5029682;28;20458;-73
2022/03/15 02:02:07;;;;;;;45.93;27.23;;;3.10;98.40;;;;;;5029745;28;20462;-70
2022/03/15 02:04:36;;;;;;;46.33;27.30;;;3.30;98.60;;;;;;5029691;28;20447;-73
2022/03/15 02:07:06;;;;;;;42.13;26.53;;;3.20;98.90;;;;;;5029611;28;20553;-71
2022/03/15 02:09:34;;;;;;;36.17;27.00;;;3.40;98.10;;;;;;5029627;28;20481;-72
2022/03/15 02:12:01;;;;;;;41.90;26.60;;;3.50;97.90;;;;;;5029658;28;20455;-69
2022/03/15 02:14:29;;;;;;;45.97;26.70;;;3.60;97.30;;;;;;5029585;28;20455;-69
2022/03/15 02:16:56;;;;;;;37.10;26.67;;;3.70;96.70;;;;;;5029357;28;20494;-69
2022/03/15 02:19:27;;;;;;;40.07;27.53;;;3.70;96.20;;;;;;5029536;28;20492;-69
2022/03/15 02:21:57;;;;;;;36.53;25.83;;;3.60;96.70;;;;;;5029287;28;20454;-71
2022/03/15 02:24:25;;;;;;;42.00;27.47;;;3.50;97.20;;;;;;5028911;28;20904;-69
2022/03/15 02:26:52;;;;;;;40.13;26.73;;;3.60;96.80;;;;;;5029434;28;20558;-70
2022/03/15 02:29:20;;;;;;;43.93;28.73;;;3.60;96.60;;;;;;5028884;28;20554;-69
2022/03/15 02:31:47;;;;;;;41.33;29.43;;;3.60;96.80;;;;;;5029259;28;20535;-72
2022/03/15 02:34:14;;;;;;;43.00;27.87;;;3.50;97.30;;;;;;5029309;28;20461;-71
2022/03/15 02:36:42;;;;;;;53.03;28.87;;;3.50;97.00;;;;;;5029306;28;20503;-70
2022/03/15 02:39:11;;;;;;;37.57;27.90;;;3.40;97.50;;;;;;5029379;28;20502;-69
2022/03/15 02:41:38;;;;;;;38.03;27.27;;;3.40;97.80;;;;;;5029381;28;20458;-70
2022/03/15 02:44:06;;;;;;;40.07;27.27;;;3.30;98.10;;;;;;5029359;28;20459;-67
2022/03/15 02:46:34;;;;;;;41.10;25.33;;;3.30;98.20;;;;;;5028858;28;20455;-73
2022/03/15 02:49:02;;;;;;;40.97;27.67;;;3.40;98.20;;;;;;5028826;28;20983;-70
2022/03/15 02:51:31;;;;;;;33.70;24.23;;;3.50;97.80;;;;;;5029631;28;20466;-69
2022/03/15 02:54:02;;;;;;;36.90;25.47;;;3.60;97.10;;;;;;5029379;28;20560;-68
2022/03/15 02:56:33;;;;;;;36.53;24.57;;;3.50;97.10;;;;;;5028695;28;20490;-71
2022/03/15 02:59:00;;;;;;;37.37;25.27;;;3.40;97.70;;;;;;5029067;28;20482;-72
2022/03/15 03:01:27;;;;;;;34.27;24.47;;;3.40;97.60;;;;;;5030490;28;20978;-71
2022/03/15 03:03:54;;;;;;;41.77;27.10;;;3.20;98.50;;;;;;5033052;28;20455;-70
2022/03/15 03:06:21;;;;;;;40.30;26.50;;;2.80;99.90;;;;;;5032864;28;20450;-71
2022/03/15 03:08:49;;;;;;;38.20;27.47;;;2.80;99.90;;;;;;5032793;28;20490;-69
2022/03/15 03:11:16;;;;;;;45.20;28.67;;;2.80;99.90;;;;;;5032493;28;20596;-71
2022/03/15 03:13:44;;;;;;;44.63;27.83;;;3.10;99.90;;;;;;5032580;28;20458;-70
2022/03/15 03:16:13;;;;;;;47.10;29.80;;;3.20;99.90;;;;;;5032752;28;20493;-72
2022/03/15 03:18:41;;;;;;;49.50;29.83;;;3.40;99.70;;;;;;5032693;28;20573;-71
2022/03/15 03:21:08;;;;;;;47.27;30.57;;;3.30;99.90;;;;;;5032873;28;20454;-70
2022/03/15 03:23:37;;;;;;;48.90;30.90;;;3.40;99.00;;;;;;5032723;28;20451;-69
2022/03/15 03:26:05;;;;;;;44.57;31.17;;;3.40;99.00;;;;;;5032397;28;20569;-71
2022/03/15 03:28:36;;;;;;;54.60;33.80;;;3.40;98.70;;;;;;5032326;28;20475;-71
2022/03/15 03:31:08;;;;;;;43.17;30.60;;;3.40;98.60;;;;;;5032197;28;20545;-68
2022/03/15 03:33:36;;;;;;;46.70;31.10;;;3.60;97.90;;;;;;5032581;28;21009;-69
2022/03/15 03:36:04;;;;;;;50.73;32.30;;;3.40;97.90;;;;;;5032558;28;20482;-69
2022/03/15 03:38:31;;;;;;;48.43;32.00;;;3.50;97.70;;;;;;5032063;28;20462;-69
2022/03/15 03:40:59;;;;;;;49.93;31.20;;;3.60;97.30;;;;;;5032139;28;20455;-72
2022/03/15 03:43:27;;;;;;;51.67;32.50;;;3.60;97.20;;;;;;5032702;28;20775;-71
2022/03/15 03:45:54;;;;;;;51.60;31.87;;;3.50;97.10;;;;;;5032236;28;20442;-73
2022/03/15 03:48:23;;;;;;;40.73;29.63;;;3.40;97.80;;;;;;5032000;28;20474;-73
2022/03/15 03:50:51;;;;;;;46.40;30.37;;;3.40;98.10;;;;;;5032520;28;20443;-69
2022/03/15 03:53:19;;;;;;;45.13;31.67;;;3.40;98.10;;;;;;5031949;28;20450;-72
2022/03/15 03:55:46;;;;;;;48.23;31.37;;;3.10;99.40;;;;;;5031984;28;20917;-71
2022/03/15 03:58:13;;;;;;;48.23;33.03;;;3.00;99.40;;;;;;5032218;28;20471;-71
2022/03/15 04:00:40;;;;;;;45.17;31.40;;;2.60;99.90;;;;;;5032307;28;20457;-72
2022/03/15 04:03:07;;;;;;;50.67;31.67;;;2.70;99.90;;;;;;5032174;28;20450;-71
2022/03/15 04:05:39;;;;;;;49.40;32.20;;;2.30;99.90;;;;;;5032154;28;20473;-70
2022/03/15 04:08:07;;;;;;;46.10;30.87;;;1.90;99.90;;;;;;5031500;28;20506;-72
2022/03/15 04:10:34;;;;;;;54.23;31.80;;;1.90;99.90;;;;;;5031871;28;20477;-69
2022/03/15 04:13:02;;;;;;;44.80;31.87;;;1.90;99.90;;;;;;5031643;28;20455;-69
2022/03/15 04:15:32;;;;;;;40.00;31.00;;;1.50;99.90;;;;;;5031821;28;20455;-68
2022/03/15 04:17:59;;;;;;;42.03;27.60;;;1.40;99.90;;;;;;5031667;28;20483;-72
2022/03/15 04:20:26;;;;;;;38.20;25.93;;;1.70;99.90;;;;;;5031395;28;20462;-69
2022/03/15 04:22:55;;;;;;;41.70;28.40;;;1.40;99.90;;;;;;5031569;28;20454;-72
2022/03/15 04:25:22;;;;;;;40.33;25.23;;;1.60;99.90;;;;;;5031549;28;20907;-68
2022/03/15 04:27:49;;;;;;;42.90;25.70;;;1.60;99.90;;;;;;5031086;28;20475;-69
2022/03/15 04:30:17;;;;;;;44.40;28.40;;;1.40;99.90;;;;;;5031578;28;20459;-73
2022/03/15 04:32:44;;;;;;;44.00;27.67;;;1.40;99.90;;;;;;5031106;28;20481;-72
2022/03/15 04:35:11;;;;;;;43.20;28.67;;;1.60;99.90;;;;;;5031417;28;20948;-68
2022/03/15 04:37:38;;;;;;;43.10;27.40;;;1.50;99.90;;;;;;5031384;28;20856;-70
2022/03/15 04:40:09;;;;;;;43.63;27.03;;;1.70;99.90;;;;;;5031457;28;20804;-68
2022/03/15 04:42:36;;;;;;;55.00;28.87;;;2.10;99.90;;;;;;5031337;28;20478;-68
2022/03/15 04:45:04;;;;;;;45.73;30.73;;;2.10;99.90;;;;;;5031361;28;20543;-71
2022/03/15 04:47:31;;;;;;;48.17;29.40;;;2.30;99.90;;;;;;5031135;28;20478;-70
2022/03/15 04:49:58;;;;;;;49.93;30.03;;;2.60;99.90;;;;;;5031166;28;20947;-68
2022/03/15 04:52:25;;;;;;;45.83;30.10;;;2.70;99.90;;;;;;5031119;28;20939;-68
2022/03/15 04:54:52;;;;;;;44.97;29.83;;;2.80;99.90;;;;;;5031119;28;21008;-68
2022/03/15 04:57:21;;;;;;;49.60;30.73;;;2.90;99.90;;;;;;5031086;28;20591;-71
2022/03/15 04:59:48;;;;;;;49.93;30.03;;;3.00;99.90;;;;;;5031191;28;20936;-69
2022/03/15 05:02:15;;;;;;;44.00;29.30;;;3.20;99.90;;;;;;5031015;28;20505;-71
2022/03/15 05:04:42;;;;;;;44.00;30.43;;;3.10;99.90;;;;;;5030765;28;20958;-71
2022/03/15 05:07:09;;;;;;;45.90;27.93;;;3.00;99.90;;;;;;5030665;28;20526;-70
2022/03/15 05:11:06;;;;;;;48.83;29.13;;;3.10;99.90;;;;;;5030762;28;20931;-72
2022/03/15 05:12:26;;;;;;;49.80;30.27;;;3.00;99.90;;;;;;5030390;28;20931;-71
2022/03/15 05:14:53;;;;;;;43.30;28.47;;;2.90;99.90;;;;;;5030703;28;20470;-70
2022/03/15 05:17:21;;;;;;;39.27;29.83;;;2.80;99.90;;;;;;5030543;28;20487;-72
2022/03/15 05:19:48;;;;;;;45.73;32.50;;;3.00;99.90;;;;;;5030760;28;20451;-75
2022/03/15 05:22:15;;;;;;;41.80;29.30;;;3.00;99.90;;;;;;5030687;28;20439;-72
2022/03/15 05:24:42;;;;;;;47.63;32.10;;;3.10;99.90;;;;;;5029320;28;20493;-71
2022/03/15 05:27:12;;;;;;;50.20;32.80;;;3.10;99.90;;;;;;5029958;28;20924;-73
2022/03/15 05:29:41;;;;;;;44.90;33.00;;;3.20;99.90;;;;;;5030112;28;20827;-71
2022/03/15 05:32:08;;;;;;;45.03;31.00;;;3.20;99.90;;;;;;5030247;28;20501;-69
2022/03/15 05:34:36;;;;;;;51.57;31.13;;;3.20;99.90;;;;;;5030277;28;20462;-76
2022/03/15 05:37:04;;;;;;;43.43;30.17;;;3.20;99.90;;;;;;5030281;28;21007;-77
2022/03/15 05:39:32;;;;;;;46.20;32.33;;;3.40;99.90;;;;;;5029825;28;20463;-74
2022/03/15 05:41:59;;;;;;;44.50;30.87;;;3.30;99.90;;;;;;5030096;28;20455;-73
2022/03/15 05:44:26;;;;;;;41.97;28.63;;;3.30;99.90;;;;;;5029899;28;20451;-70
2022/03/15 05:46:55;;;;;;;48.90;30.23;;;3.30;99.90;;;;;;5029854;28;20925;-72
2022/03/15 05:49:22;;;;;;;51.40;31.43;;;3.30;99.90;;;;;;5029665;28;20474;-74
2022/03/15 05:51:49;;;;;;;42.13;30.77;;;3.50;99.90;;;;;;5030075;28;20542;-70
2022/03/15 05:54:16;;;;;;;41.67;28.97;;;3.60;99.90;;;;;;5029981;28;20846;-70
2022/03/15 05:56:43;;;;;;;51.67;31.90;;;3.60;99.90;;;;;;5029583;28;20494;-72
2022/03/15 05:59:10;;;;;;;38.50;29.77;;;3.60;99.90;;;;;;5029814;28;20524;-69
2022/03/15 06:01:38;;;;;;;43.03;29.70;;;3.50;99.90;;;;;;5030025;28;20586;-69
2022/03/15 06:04:07;;;;;;;47.97;30.80;;;3.60;99.90;;;;;;5029848;28;20924;-69
2022/03/15 06:06:34;;;;;;;43.33;29.90;;;3.90;99.90;;;;;;5029725;28;20451;-71
2022/03/15 06:09:02;;;;;;;36.23;28.57;;;4.00;99.90;;;;;;5029693;28;20474;-69
2022/03/15 06:11:31;;;;;;;37.33;27.93;;;4.10;99.90;;;;;;5029659;28;20494;-71
2022/03/15 06:13:58;;;;;;;44.40;31.37;;;4.30;99.90;;;;;;5029403;28;20561;-70
2022/03/15 06:16:25;;;;;;;42.87;30.70;;;4.40;99.70;;;;;;5029546;28;20479;-69
2022/03/15 06:18:52;;;;;;;46.20;33.63;;;4.60;99.10;;;;;;5029447;28;20477;-71
2022/03/15 06:21:21;;;;;;;46.20;31.53;;;4.90;98.00;;;;;;5029366;28;20462;-71
2022/03/15 06:23:48;;;;;;;43.60;31.60;;;5.00;97.70;;;;;;5029297;28;20477;-69
2022/03/15 06:26:17;;;;;;;45.40;29.93;;;5.10;97.20;;;;;;5029011;28;20494;-73
2022/03/15 06:28:45;;;;;;;46.60;28.97;;;5.20;96.40;;;;;;5029332;28;20497;-70
2022/03/15 06:31:14;;;;;;;39.80;25.97;;;5.20;96.10;;;;;;5029499;28;20458;-73
2022/03/15 06:33:41;;;;;;;42.13;26.73;;;5.30;95.60;;;;;;5029542;28;20455;-68
2022/03/15 06:36:09;;;;;;;36.47;27.70;;;5.40;95.40;;;;;;5031797;28;20549;-75
2022/03/15 06:38:37;;;;;;;42.60;29.57;;;5.40;95.40;;;;;;5033540;28;20483;-71
2022/03/15 06:41:04;;;;;;;39.47;28.37;;;5.50;95.00;;;;;;5033761;28;20509;-72
2022/03/15 06:43:33;;;;;;;40.67;27.90;;;5.60;94.60;;;;;;5033364;28;20482;-71
2022/03/15 06:46:00;;;;;;;40.80;29.03;;;5.80;94.00;;;;;;5033686;28;20467;-71
2022/03/15 06:48:27;;;;;;;37.43;27.70;;;5.90;93.80;;;;;;5033480;28;20478;-74
2022/03/15 06:50:54;;;;;;;42.47;29.20;;;6.00;93.40;;;;;;5015366;28;20463;-73
2022/03/15 06:53:22;;;;;;;40.63;28.73;;;6.10;93.40;;;;;;5033105;28;20541;-74
2022/03/15 06:55:50;;;;;;;40.00;30.37;;;6.10;93.20;;;;;;5033212;28;20465;-77
2022/03/15 06:58:18;;;;;;;63.80;39.70;;;6.20;93.40;;;;;;5033129;28;20495;-72
2022/03/15 07:00:47;;;;;;;69.83;44.77;;;6.10;93.90;;;;;;5033177;28;20454;-72
2022/03/15 07:03:14;;;;;;;65.37;46.27;;;6.30;94.10;;;;;;5033134;28;20469;-75
2022/03/15 07:05:43;;;;;;;61.60;45.93;;;6.50;93.60;;;;;;5032736;28;20467;-74
2022/03/15 07:08:10;;;;;;;61.33;46.57;;;6.40;93.50;;;;;;5032881;28;20481;-72
2022/03/15 07:10:38;;;;;;;63.50;44.40;;;6.40;93.70;;;;;;5033046;28;20538;-70
2022/03/15 07:13:06;;;;;;;65.50;46.67;;;6.70;93.20;;;;;;5032888;28;20994;-74
2022/03/15 07:15:33;;;;;;;61.80;44.80;;;6.80;93.30;;;;;;5032744;28;20473;-72
2022/03/15 07:18:00;;;;;;;66.70;43.17;;;6.90;93.10;;;;;;5032464;28;20552;-73
2022/03/15 07:20:28;;;;;;;61.23;43.70;;;7.10;92.30;;;;;;5032446;28;20458;-69
2022/03/15 07:22:56;;;;;;;67.33;45.63;;;7.30;92.10;;;;;;5032769;28;20451;-70
2022/03/15 07:25:23;;;;;;;58.53;42.43;;;7.50;91.30;;;;;;5032359;28;20922;-72
2022/03/15 07:27:50;;;;;;;62.13;42.57;;;7.60;91.10;;;;;;5032571;28;20466;-73
2022/03/15 07:30:19;;;;;;;52.50;41.90;;;7.70;91.10;;;;;;5032464;28;20569;-73
2022/03/15 07:32:47;;;;;;;55.80;40.77;;;7.80;90.70;;;;;;5032380;28;20501;-71
2022/03/15 07:35:14;;;;;;;63.00;40.77;;;8.00;89.90;;;;;;5032413;28;20842;-72
2022/03/15 07:37:49;;;;;;;56.53;40.67;;;8.10;89.40;;;;;;5032166;28;20506;-71
2022/03/15 07:40:17;;;;;;;58.77;41.00;;;8.20;87.80;;;;;;5032504;28;20541;-71
2022/03/15 07:42:44;;;;;;;62.43;39.73;;;8.30;88.30;;;;;;5032401;28;20766;-73
2022/03/15 07:45:11;;;;;;;49.57;38.03;;;8.30;86.20;;;;;;5032014;28;20459;-69
2022/03/15 07:47:40;;;;;;;51.20;36.13;;;8.30;85.40;;;;;;5031380;28;20471;-69
2022/03/15 07:50:08;;;;;;;53.80;36.73;;;8.40;84.50;;;;;;5032363;28;20500;-71
2022/03/15 07:52:35;;;;;;;46.33;36.60;;;8.50;84.00;;;;;;5032503;28;20554;-73
2022/03/15 07:55:02;;;;;;;50.30;36.80;;;8.70;82.70;;;;;;5032294;28;21199;-69
2022/03/15 07:57:29;;;;;;;55.00;38.33;;;8.90;81.50;;;;;;5032200;28;20498;-72
2022/03/15 07:59:56;;;;;;;45.97;36.40;;;8.90;80.90;;;;;;5031967;28;20952;-70
2022/03/15 08:02:24;;;;;;;64.90;35.43;;;9.10;79.50;;;;;;5031563;28;20453;-71
2022/03/15 08:04:53;;;;;;;54.77;34.97;;;9.10;79.20;;;;;;5031982;28;20458;-72
2022/03/15 08:07:22;;;;;;;50.10;36.70;;;9.20;78.40;;;;;;5031811;28;20471;-70
2022/03/15 08:09:49;;;;;;;45.50;33.50;;;9.20;76.80;;;;;;5031820;28;20505;-71
2022/03/15 08:12:18;;;;;;;42.87;30.80;;;9.40;75.90;;;;;;5031724;28;20455;-69
2022/03/15 08:14:47;;;;;;;61.10;33.40;;;9.20;73.30;;;;;;5031814;28;20459;-70
2022/03/15 08:17:14;;;;;;;47.33;33.13;;;9.10;74.30;;;;;;5031747;28;20576;-70
2022/03/15 08:19:41;;;;;;;50.63;31.53;;;9.50;74.10;;;;;;5031785;28;20451;-71
2022/03/15 08:22:09;;;;;;;44.03;31.83;;;9.80;74.10;;;;;;5031825;28;20451;-69
2022/03/15 08:24:36;;;;;;;50.27;32.70;;;10.00;71.60;;;;;;5031241;28;20486;-72
2022/03/15 08:27:04;;;;;;;45.23;32.83;;;10.20;70.60;;;;;;5031722;28;20450;-71
2022/03/15 08:29:31;;;;;;;47.43;32.47;;;10.60;68.80;;;;;;5031596;28;20447;-72
2022/03/15 08:31:59;;;;;;;40.43;32.03;;;10.70;66.00;;;;;;5031546;28;20501;-72
2022/03/15 08:34:26;;;;;;;44.40;33.13;;;10.70;65.70;;;;;;5031526;28;20447;-71
2022/03/15 08:36:54;;;;;;;43.13;33.10;;;10.40;65.00;;;;;;5030996;28;21026;-73
2022/03/15 08:39:23;;;;;;;49.40;33.33;;;10.50;66.00;;;;;;5031579;28;20478;-70
2022/03/15 08:41:51;;;;;;;41.83;31.17;;;10.30;64.00;;;;;;5031327;28;20565;-71
2022/03/15 08:44:20;;;;;;;39.37;28.90;;;10.40;64.90;;;;;;5030990;28;20550;-74
2022/03/15 08:46:48;;;;;;;40.97;30.27;;;10.50;64.30;;;;;;5031327;28;20628;-72
2022/03/15 08:49:16;;;;;;;38.87;29.03;;;10.60;65.40;;;;;;5031288;28;20507;-71
2022/03/15 08:51:44;;;;;;;47.00;32.43;;;10.80;64.90;;;;;;5030789;28;20455;-72
2022/03/15 08:54:11;;;;;;;42.40;31.20;;;11.20;64.30;;;;;;5031091;28;20461;-71
2022/03/15 08:56:41;;;;;;;39.20;31.00;;;11.40;62.10;;;;;;5031090;28;20447;-73
2022/03/15 08:59:09;;;;;;;43.00;31.40;;;11.50;61.80;;;;;;5029949;28;20486;-73
2022/03/15 09:01:36;;;;;;;46.97;32.50;;;11.50;59.70;;;;;;5031064;28;21014;-70
2022/03/15 09:04:03;;;;;;;43.77;30.57;;;11.30;59.40;;;;;;5030836;28;20458;-71
2022/03/15 09:06:31;;;;;;;33.67;28.90;;;11.40;60.30;;;;;;5030502;28;20461;-73
2022/03/15 09:09:00;;;;;;;43.00;30.50;;;11.50;59.60;;;;;;5030725;28;20470;-72
2022/03/15 09:11:27;;;;;;;42.73;31.97;;;11.60;58.50;;;;;;5030840;28;20552;-74
2022/03/15 09:13:56;;;;;;;45.20;30.90;;;11.50;58.30;;;;;;5030655;28;20466;-73
2022/03/15 09:16:23;;;;;;;38.17;29.63;;;11.70;57.80;;;;;;5030678;28;20446;-71
2022/03/15 09:18:50;;;;;;;40.30;29.30;;;11.70;57.70;;;;;;5030486;28;20965;-71
2022/03/15 09:21:18;;;;;;;40.43;28.67;;;11.90;57.30;;;;;;5030582;28;20478;-72
2022/03/15 09:23:45;;;;;;;35.00;30.30;;;12.20;56.70;;;;;;5012347;28;20451;-70
2022/03/15 09:26:12;;;;;;;40.60;30.33;;;12.40;55.60;;;;;;5030339;28;20489;-69
2022/03/15 09:28:41;;;;;;;39.87;28.70;;;12.60;55.80;;;;;;5030178;28;20474;-72
2022/03/15 09:31:09;;;;;;;37.07;28.27;;;12.80;55.90;;;;;;5030366;28;20837;-71
2022/03/15 09:33:37;;;;;;;34.93;28.00;;;13.10;56.30;;;;;;5030367;28;20455;-72
2022/03/15 09:36:05;;;;;;;42.17;28.60;;;13.30;54.80;;;;;;5030250;28;20494;-72
2022/03/15 09:38:32;;;;;;;45.30;27.50;;;13.50;53.30;;;;;;5030082;28;20587;-72
2022/03/15 09:41:04;;;;;;;32.93;27.10;;;13.80;53.20;;;;;;5029764;28;20920;-71
2022/03/15 09:43:36;;;;;;;37.07;27.13;;;14.00;52.10;;;;;;5030003;28;20489;-71
2022/03/15 09:46:05;;;;;;;39.33;28.13;;;13.90;52.00;;;;;;5029702;28;20538;-71
2022/03/15 09:48:34;;;;;;;41.33;29.60;;;13.90;50.50;;;;;;5029708;28;20499;-72
2022/03/15 09:51:04;;;;;;;43.57;28.17;;;13.80;49.70;;;;;;5029932;28;20470;-71
2022/03/15 09:53:34;;;;;;;33.90;28.70;;;13.90;50.30;;;;;;5030045;28;20455;-72
2022/03/15 09:56:01;;;;;;;37.50;29.10;;;13.90;50.70;;;;;;5029868;28;20509;-71
2022/03/15 09:58:29;;;;;;;32.70;28.40;;;14.00;49.00;;;;;;5029630;28;20494;-73
2022/03/15 10:00:58;;;;;;;37.03;27.87;;;14.00;49.50;;;;;;5029829;28;20450;-70
2022/03/15 10:03:25;;;;;;;39.00;28.50;;;13.90;50.30;;;;;;5030025;28;20541;-72
2022/03/15 10:05:54;;;;;;;34.33;27.40;;;14.20;50.70;;;;;;5030009;28;20458;-71
2022/03/15 10:08:21;;;;;;;32.00;27.07;;;14.60;49.80;;;;;;5029695;28;20479;-72
2022/03/15 10:10:51;;;;;;;37.00;26.63;;;15.00;49.50;;;;;;5029105;28;20895;-71
2022/03/15 10:13:18;;;;;;;31.77;26.10;;;15.00;48.80;;;;;;5029611;28;20546;-71
2022/03/15 10:15:53;;;;;;;41.40;26.10;;;15.20;48.40;;;;;;5029735;28;20459;-72
2022/03/15 10:18:21;;;;;;;31.93;24.40;;;15.50;47.00;;;;;;5028883;28;20497;-72
2022/03/15 10:20:49;;;;;;;26.87;23.20;;;15.90;45.60;;;;;;5029504;28;20486;-73
2022/03/15 10:23:19;;;;;;;30.63;23.27;;;16.10;45.60;;;;;;5029434;28;20908;-73
2022/03/15 10:25:50;;;;;;;28.97;22.30;;;16.30;43.80;;;;;;5029056;28;20582;-71
2022/03/15 10:28:18;;;;;;;33.97;22.17;;;16.50;42.90;;;;;;5029310;28;20493;-71
2022/03/15 10:30:47;;;;;;;26.77;20.93;;;16.60;41.00;;;;;;5029322;28;20455;-72
2022/03/15 10:33:15;;;;;;;26.23;22.87;;;16.40;40.70;;;;;;5029360;28;20451;-71
2022/03/15 10:35:45;;;;;;;35.40;19.20;;;16.30;40.60;;;;;;5029184;28;21086;-73
2022/03/15 10:38:12;;;;;;;22.90;19.27;;;16.10;39.50;;;;;;5029021;28;20502;-70
2022/03/15 10:40:42;;;;;;;23.07;18.93;;;16.30;39.50;;;;;;5029081;28;20911;-72
2022/03/15 10:43:12;;;;;;;20.87;16.30;;;16.40;39.60;;;;;;5029248;28;20459;-72
2022/03/15 10:45:43;;;;;;;20.40;16.27;;;16.70;37.70;;;;;;5029319;28;20471;-72
2022/03/15 10:48:18;;;;;;;16.23;12.93;;;16.60;35.10;;;;;;5029109;28;20470;-71
2022/03/15 10:50:56;;;;;;;20.93;14.47;;;16.40;34.60;;;;;;5028940;28;20955;-72
2022/03/15 10:53:25;;;;;;;20.77;13.90;;;16.30;34.60;;;;;;5029080;28;20455;-71
2022/03/15 10:56:09;;;;;;;18.17;12.73;;;16.60;34.90;;;;;;5029154;28;20462;-71
2022/03/15 10:58:44;;;;;;;17.53;12.03;;;16.90;34.50;;;;;;5028588;28;20494;-72
2022/03/15 11:01:11;;;;;;;16.63;13.97;;;16.80;32.80;;;;;;5028575;28;20540;-72
2022/03/15 11:03:38;;;;;;;12.60;10.00;;;16.70;34.20;;;;;;5029251;28;20457;-78
2022/03/15 11:06:08;;;;;;;16.93;11.30;;;16.90;32.20;;;;;;5028545;28;20951;-71
2022/03/15 11:08:36;;;;;;;20.30;12.43;;;16.50;30.80;;;;;;5028679;28;20507;-73
2022/03/15 11:11:06;;;;;;;18.37;13.77;;;16.70;32.90;;;;;;5029132;28;20458;-73
2022/03/15 11:13:33;;;;;;;16.83;11.63;;;17.00;33.50;;;;;;5028863;28;20545;-70
2022/03/15 11:16:00;;;;;;;18.00;11.10;;;17.10;33.10;;;;;;5029138;28;20455;-71
2022/03/15 11:18:30;;;;;;;14.20;10.33;;;17.30;33.00;;;;;;5028759;28;21005;-71
2022/03/15 11:21:01;;;;;;;19.83;9.63;;;17.50;31.90;;;;;;5028856;28;20903;-72
2022/03/15 11:23:29;;;;;;;9.63;6.93;;;17.70;30.90;;;;;;5032107;28;20529;-72
2022/03/15 11:25:59;;;;;;;12.90;7.00;;;17.80;31.20;;;;;;5032259;28;20922;-73
2022/03/15 11:28:31;;;;;;;11.80;8.27;;;18.00;31.50;;;;;;5032331;28;20509;-71
2022/03/15 11:30:59;;;;;;;11.80;7.23;;;18.00;31.70;;;;;;5032649;28;20462;-70
2022/03/15 11:33:28;;;;;;;10.17;7.73;;;17.80;31.20;;;;;;5032171;28;20466;-73
2022/03/15 11:35:55;;;;;;;12.43;7.77;;;18.00;31.90;;;;;;5032677;28;20466;-73
2022/03/15 11:38:23;;;;;;;13.03;8.40;;;18.00;31.70;;;;;;5031965;28;21007;-71
2022/03/15 11:40:54;;;;;;;14.03;8.20;;;18.30;31.70;;;;;;5032286;28;20550;-72
2022/03/15 11:43:33;;;;;;;13.70;8.10;;;18.40;31.30;;;;;;5032212;28;20817;-72
2022/03/15 11:46:04;;;;;;;11.20;5.97;;;18.60;31.20;;;;;;5032402;28;20569;-74
2022/03/15 11:48:44;;;;;;;12.93;6.97;;;18.50;29.90;;;;;;5031786;28;20551;-72
2022/03/15 11:51:21;;;;;;;11.43;5.30;;;18.60;31.00;;;;;;5032138;28;20461;-71
2022/03/15 11:53:55;;;;;;;11.83;5.50;;;18.70;30.00;;;;;;5014201;28;20454;-74
2022/03/15 11:56:32;;;;;;;12.67;5.50;;;18.80;29.80;;;;;;5031760;28;20458;-73
2022/03/15 11:59:00;;;;;;;11.60;6.63;;;18.80;30.10;;;;;;5031972;28;20494;-72
2022/03/15 12:01:28;;;;;;;8.70;6.27;;;18.60;30.00;;;;;;5031988;28;20452;-71
2022/03/15 12:03:58;;;;;;;9.90;5.67;;;18.60;30.10;;;;;;5031829;28;20887;-74
2022/03/15 12:06:35;;;;;;;8.70;5.67;;;18.60;30.10;;;;;;5031876;28;20520;-72
2022/03/15 12:09:13;;;;;;;9.57;5.87;;;18.70;30.70;;;;;;5031653;28;20545;-73
2022/03/15 12:11:42;;;;;;;10.30;6.27;;;18.60;31.30;;;;;;5031953;28;20463;-73
2022/03/15 12:14:15;;;;;;;8.43;5.27;;;18.80;30.50;;;;;;5031548;28;20751;-74
2022/03/15 12:16:51;;;;;;;8.77;5.47;;;18.60;30.40;;;;;;5031729;28;20813;-71
2022/03/15 12:19:35;;;;;;;8.80;5.50;;;18.60;31.10;;;;;;5031065;28;20486;-73
2022/03/15 12:22:08;;;;;;;9.13;5.90;;;18.80;30.60;;;;;;5031277;28;20970;-73
2022/03/15 12:24:37;;;;;;;7.10;5.00;;;19.00;30.70;;;;;;5031307;28;20495;-74
2022/03/15 12:27:07;;;;;;;8.30;4.87;;;19.20;29.00;;;;;;5031129;28;20455;-73
2022/03/15 12:29:37;;;;;;;9.40;5.40;;;19.50;29.70;;;;;;5031441;28;20446;-75
2022/03/15 12:32:13;;;;;;;6.50;4.47;;;19.60;29.30;;;;;;5031472;28;20462;-72
2022/03/15 12:34:42;;;;;;;7.40;5.37;;;19.50;29.20;;;;;;5031540;28;20509;-70
2022/03/15 12:37:09;;;;;;;10.20;6.20;;;19.30;29.70;;;;;;5031127;28;20466;-69
2022/03/15 12:39:37;;;;;;;9.70;5.23;;;19.40;30.40;;;;;;5031394;28;20601;-67
2022/03/15 12:42:08;;;;;;;9.20;5.93;;;19.40;29.70;;;;;;5031418;28;20983;-70